sensor_id;sensor_type;location;lat;lon;timestamp;P1;durP1;ratioP1;P2;durP2;ratioP2
28252;SDS011;15515;45.588;5.276;2022-11-21T03:06:57;10.82;;;6.70;;
28252;SDS011;15515;45.588;5.276;2022-11-21T03:22:14;7.75;;;5.93;;
28252;SDS011;15515;45.588;5.276;2022-11-21T03:33:12;7.82;;;5.55;;
28252;SDS011;15515;45.588;5.276;2022-11-21T03:36:59;9.63;;;5.57;;
28252;SDS011;15515;45.588;5.276;2022-11-21T03:40:22;8.27;;;5.47;;
28252;SDS011;15515;45.588;5.276;2022-11-21T03:48:15;8.35;;;5.57;;
28252;SDS011;15515;45.588;5.276;2022-11-21T03:51:35;9.80;;;5.90;;
28252;SDS011;15515;45.588;5.276;2022-11-21T05:55:20;26.13;;;13.82;;
28252;SDS011;15515;45.588;5.276;2022-11-21T05:57:47;17.05;;;10.82;;
28252;SDS011;15515;45.588;5.276;2022-11-21T06:07:24;22.08;;;10.50;;
28252;SDS011;15515;45.588;5.276;2022-11-21T06:25:23;7.25;;;5.63;;
28252;SDS011;15515;45.588;5.276;2022-11-21T06:27:50;10.30;;;6.03;;
28252;SDS011;15515;45.588;5.276;2022-11-21T06:30:17;7.97;;;5.88;;
28252;SDS011;15515;45.588;5.276;2022-11-21T06:32:47;9.82;;;6.80;;
28252;SDS011;15515;45.588;5.276;2022-11-21T06:35:15;11.82;;;6.85;;
28252;SDS011;15515;45.588;5.276;2022-11-21T06:37:42;10.18;;;5.53;;
28252;SDS011;15515;45.588;5.276;2022-11-21T06:40:10;5.72;;;5.10;;
28252;SDS011;15515;45.588;5.276;2022-11-21T06:42:38;8.20;;;6.40;;
28252;SDS011;15515;45.588;5.276;2022-11-21T06:45:05;12.80;;;6.32;;
28252;SDS011;15515;45.588;5.276;2022-11-21T06:47:33;12.80;;;8.55;;
28252;SDS011;15515;45.588;5.276;2022-11-21T06:50:00;11.23;;;7.85;;
28252;SDS011;15515;45.588;5.276;2022-11-21T06:52:31;10.55;;;8.15;;
28252;SDS011;15515;45.588;5.276;2022-11-21T06:54:58;9.88;;;8.10;;
28252;SDS011;15515;45.588;5.276;2022-11-21T06:57:26;8.75;;;5.30;;
28252;SDS011;15515;45.588;5.276;2022-11-21T06:59:53;15.23;;;5.50;;
28252;SDS011;15515;45.588;5.276;2022-11-21T07:02:21;12.13;;;4.43;;
28252;SDS011;15515;45.588;5.276;2022-11-21T07:04:48;8.10;;;4.32;;
28252;SDS011;15515;45.588;5.276;2022-11-21T07:07:16;13.77;;;4.20;;
28252;SDS011;15515;45.588;5.276;2022-11-21T07:09:43;12.02;;;4.45;;
28252;SDS011;15515;45.588;5.276;2022-11-21T07:12:12;9.52;;;4.97;;
28252;SDS011;15515;45.588;5.276;2022-11-21T07:14:58;8.85;;;5.15;;
28252;SDS011;15515;45.588;5.276;2022-11-21T07:17:26;8.40;;;4.97;;
28252;SDS011;15515;45.588;5.276;2022-11-21T07:19:53;9.15;;;4.43;;
28252;SDS011;15515;45.588;5.276;2022-11-21T07:22:21;8.10;;;4.22;;
28252;SDS011;15515;45.588;5.276;2022-11-21T07:24:48;9.68;;;4.70;;
28252;SDS011;15515;45.588;5.276;2022-11-21T07:27:15;8.80;;;5.13;;
28252;SDS011;15515;45.588;5.276;2022-11-21T07:29:43;9.55;;;5.95;;
28252;SDS011;15515;45.588;5.276;2022-11-21T07:32:10;10.43;;;5.00;;
28252;SDS011;15515;45.588;5.276;2022-11-21T07:34:38;11.05;;;5.00;;
28252;SDS011;15515;45.588;5.276;2022-11-21T07:37:05;8.57;;;4.70;;
28252;SDS011;15515;45.588;5.276;2022-11-21T07:39:32;9.50;;;4.55;;
28252;SDS011;15515;45.588;5.276;2022-11-21T07:42:00;12.25;;;5.32;;
28252;SDS011;15515;45.588;5.276;2022-11-21T07:44:29;10.75;;;4.65;;
28252;SDS011;15515;45.588;5.276;2022-11-21T07:46:57;7.72;;;4.30;;
28252;SDS011;15515;45.588;5.276;2022-11-21T07:49:24;11.52;;;5.25;;
28252;SDS011;15515;45.588;5.276;2022-11-21T07:51:53;11.27;;;4.40;;
28252;SDS011;15515;45.588;5.276;2022-11-21T07:54:20;7.50;;;4.60;;
28252;SDS011;15515;45.588;5.276;2022-11-21T07:56:48;10.32;;;4.18;;
28252;SDS011;15515;45.588;5.276;2022-11-21T07:59:15;8.75;;;4.10;;
28252;SDS011;15515;45.588;5.276;2022-11-21T08:01:44;10.48;;;5.30;;
28252;SDS011;15515;45.588;5.276;2022-11-21T08:04:11;7.53;;;4.80;;
28252;SDS011;15515;45.588;5.276;2022-11-21T08:06:39;8.73;;;4.95;;
28252;SDS011;15515;45.588;5.276;2022-11-21T08:09:07;9.98;;;4.80;;
28252;SDS011;15515;45.588;5.276;2022-11-21T08:11:35;11.43;;;5.18;;
28252;SDS011;15515;45.588;5.276;2022-11-21T08:14:02;11.25;;;5.03;;
28252;SDS011;15515;45.588;5.276;2022-11-21T08:16:29;8.95;;;4.35;;
28252;SDS011;15515;45.588;5.276;2022-11-21T08:18:58;9.52;;;5.43;;
28252;SDS011;15515;45.588;5.276;2022-11-21T08:21:26;12.75;;;4.88;;
28252;SDS011;15515;45.588;5.276;2022-11-21T08:23:53;10.27;;;5.43;;
28252;SDS011;15515;45.588;5.276;2022-11-21T08:26:21;9.70;;;5.00;;
28252;SDS011;15515;45.588;5.276;2022-11-21T08:28:48;7.75;;;5.25;;
28252;SDS011;15515;45.588;5.276;2022-11-21T08:31:16;11.63;;;5.68;;
28252;SDS011;15515;45.588;5.276;2022-11-21T08:33:44;8.80;;;4.90;;
28252;SDS011;15515;45.588;5.276;2022-11-21T08:36:11;8.32;;;4.82;;
28252;SDS011;15515;45.588;5.276;2022-11-21T08:38:39;8.82;;;4.30;;
28252;SDS011;15515;45.588;5.276;2022-11-21T08:41:06;10.38;;;4.75;;
28252;SDS011;15515;45.588;5.276;2022-11-21T08:43:52;9.57;;;4.30;;
28252;SDS011;15515;45.588;5.276;2022-11-21T08:46:20;13.40;;;4.65;;
28252;SDS011;15515;45.588;5.276;2022-11-21T08:48:47;8.52;;;4.65;;
28252;SDS011;15515;45.588;5.276;2022-11-21T08:51:15;9.73;;;4.40;;
28252;SDS011;15515;45.588;5.276;2022-11-21T08:53:42;7.82;;;4.38;;
28252;SDS011;15515;45.588;5.276;2022-11-21T08:56:10;8.13;;;4.93;;
28252;SDS011;15515;45.588;5.276;2022-11-21T08:58:37;7.63;;;5.03;;
28252;SDS011;15515;45.588;5.276;2022-11-21T09:01:05;7.97;;;4.38;;
28252;SDS011;15515;45.588;5.276;2022-11-21T09:03:32;10.93;;;4.53;;
28252;SDS011;15515;45.588;5.276;2022-11-21T09:06:00;8.45;;;4.35;;
28252;SDS011;15515;45.588;5.276;2022-11-21T09:08:28;7.50;;;3.97;;
28252;SDS011;15515;45.588;5.276;2022-11-21T09:10:56;9.13;;;4.68;;
28252;SDS011;15515;45.588;5.276;2022-11-21T09:13:24;7.82;;;3.80;;
28252;SDS011;15515;45.588;5.276;2022-11-21T09:15:51;10.77;;;3.83;;
28252;SDS011;15515;45.588;5.276;2022-11-21T09:18:39;10.48;;;3.83;;
28252;SDS011;15515;45.588;5.276;2022-11-21T09:21:06;7.25;;;3.20;;
28252;SDS011;15515;45.588;5.276;2022-11-21T09:23:34;7.00;;;3.50;;
28252;SDS011;15515;45.588;5.276;2022-11-21T09:26:01;7.47;;;3.83;;
28252;SDS011;15515;45.588;5.276;2022-11-21T09:28:28;8.95;;;4.95;;
28252;SDS011;15515;45.588;5.276;2022-11-21T09:30:56;16.13;;;7.32;;
28252;SDS011;15515;45.588;5.276;2022-11-21T09:33:24;11.27;;;4.55;;
28252;SDS011;15515;45.588;5.276;2022-11-21T09:35:51;16.60;;;9.93;;
28252;SDS011;15515;45.588;5.276;2022-11-21T09:38:19;9.13;;;4.95;;
28252;SDS011;15515;45.588;5.276;2022-11-21T09:40:49;8.10;;;3.95;;
28252;SDS011;15515;45.588;5.276;2022-11-21T09:46:14;10.27;;;4.22;;
28252;SDS011;15515;45.588;5.276;2022-11-21T09:48:45;9.20;;;5.63;;
28252;SDS011;15515;45.588;5.276;2022-11-21T09:51:16;15.40;;;7.43;;
28252;SDS011;15515;45.588;5.276;2022-11-21T09:56:13;9.00;;;4.75;;
28252;SDS011;15515;45.588;5.276;2022-11-21T09:58:42;6.05;;;2.90;;
28252;SDS011;15515;45.588;5.276;2022-11-21T10:01:12;8.75;;;2.53;;
28252;SDS011;15515;45.588;5.276;2022-11-21T10:03:58;4.75;;;1.92;;
28252;SDS011;15515;45.588;5.276;2022-11-21T10:06:30;3.58;;;1.77;;
28252;SDS011;15515;45.588;5.276;2022-11-21T10:09:13;5.47;;;2.17;;
28252;SDS011;15515;45.588;5.276;2022-11-21T10:15:23;6.97;;;2.20;;
28252;SDS011;15515;45.588;5.276;2022-11-21T10:20:42;7.55;;;2.55;;
28252;SDS011;15515;45.588;5.276;2022-11-21T10:25:38;7.97;;;2.47;;
28252;SDS011;15515;45.588;5.276;2022-11-21T10:30:38;8.43;;;2.60;;
28252;SDS011;15515;45.588;5.276;2022-11-21T10:41:05;9.15;;;2.58;;
28252;SDS011;15515;45.588;5.276;2022-11-21T10:47:10;8.50;;;3.28;;
28252;SDS011;15515;45.588;5.276;2022-11-21T10:53:44;5.80;;;2.22;;
28252;SDS011;15515;45.588;5.276;2022-11-21T11:11:22;10.77;;;3.47;;
28252;SDS011;15515;45.588;5.276;2022-11-21T11:14:11;8.55;;;2.55;;
28252;SDS011;15515;45.588;5.276;2022-11-21T11:16:44;10.38;;;1.88;;
28252;SDS011;15515;45.588;5.276;2022-11-21T11:29:15;7.65;;;2.92;;
28252;SDS011;15515;45.588;5.276;2022-11-21T11:31:53;14.70;;;4.18;;
28252;SDS011;15515;45.588;5.276;2022-11-21T11:34:22;13.48;;;3.58;;
28252;SDS011;15515;45.588;5.276;2022-11-21T11:36:54;8.13;;;2.70;;
28252;SDS011;15515;45.588;5.276;2022-11-21T11:39:29;13.93;;;4.53;;
28252;SDS011;15515;45.588;5.276;2022-11-21T11:42:05;17.60;;;6.70;;
28252;SDS011;15515;45.588;5.276;2022-11-21T11:47:57;6.53;;;2.08;;
28252;SDS011;15515;45.588;5.276;2022-11-21T11:50:45;8.68;;;2.88;;
28252;SDS011;15515;45.588;5.276;2022-11-21T11:53:23;4.03;;;1.23;;
28252;SDS011;15515;45.588;5.276;2022-11-21T11:58:33;10.27;;;2.60;;
28252;SDS011;15515;45.588;5.276;2022-11-21T12:01:08;10.77;;;3.47;;
28252;SDS011;15515;45.588;5.276;2022-11-21T12:06:11;9.95;;;2.67;;
28252;SDS011;15515;45.588;5.276;2022-11-21T12:08:56;7.10;;;2.58;;
28252;SDS011;15515;45.588;5.276;2022-11-21T12:12:01;5.93;;;1.90;;
28252;SDS011;15515;45.588;5.276;2022-11-21T12:17:24;4.43;;;1.60;;
28252;SDS011;15515;45.588;5.276;2022-11-21T12:19:53;5.35;;;1.83;;
28252;SDS011;15515;45.588;5.276;2022-11-21T12:22:22;8.57;;;2.35;;
28252;SDS011;15515;45.588;5.276;2022-11-21T12:24:50;7.10;;;2.38;;
28252;SDS011;15515;45.588;5.276;2022-11-21T12:27:30;7.88;;;1.92;;
28252;SDS011;15515;45.588;5.276;2022-11-21T12:45:35;10.98;;;4.68;;
28252;SDS011;15515;45.588;5.276;2022-11-21T12:48:14;4.97;;;1.58;;
28252;SDS011;15515;45.588;5.276;2022-11-21T12:53:53;10.68;;;4.00;;
28252;SDS011;15515;45.588;5.276;2022-11-21T12:56:53;6.13;;;1.70;;
28252;SDS011;15515;45.588;5.276;2022-11-21T12:59:23;5.70;;;2.03;;
28252;SDS011;15515;45.588;5.276;2022-11-21T13:01:55;7.60;;;1.90;;
28252;SDS011;15515;45.588;5.276;2022-11-21T13:04:29;5.78;;;1.58;;
28252;SDS011;15515;45.588;5.276;2022-11-21T13:06:57;5.82;;;2.00;;
28252;SDS011;15515;45.588;5.276;2022-11-21T13:09:25;4.47;;;2.10;;
28252;SDS011;15515;45.588;5.276;2022-11-21T13:11:56;6.97;;;3.40;;
28252;SDS011;15515;45.588;5.276;2022-11-21T13:19:49;5.22;;;1.38;;
28252;SDS011;15515;45.588;5.276;2022-11-21T13:23:33;3.97;;;1.63;;
28252;SDS011;15515;45.588;5.276;2022-11-21T13:27:45;5.13;;;1.40;;
28252;SDS011;15515;45.588;5.276;2022-11-21T13:32:49;4.53;;;1.48;;
28252;SDS011;15515;45.588;5.276;2022-11-21T13:37:57;4.78;;;1.98;;
28252;SDS011;15515;45.588;5.276;2022-11-21T13:45:56;13.05;;;2.65;;
28252;SDS011;15515;45.588;5.276;2022-11-21T14:07:32;5.88;;;1.20;;
28252;SDS011;15515;45.588;5.276;2022-11-21T14:10:01;6.65;;;1.40;;
28252;SDS011;15515;45.588;5.276;2022-11-21T14:23:01;5.38;;;1.55;;
28252;SDS011;15515;45.588;5.276;2022-11-21T14:28:02;9.23;;;2.28;;
28252;SDS011;15515;45.588;5.276;2022-11-21T14:30:34;4.07;;;1.75;;
28252;SDS011;15515;45.588;5.276;2022-11-21T14:38:42;3.20;;;1.15;;
28252;SDS011;15515;45.588;5.276;2022-11-21T14:41:33;5.13;;;1.58;;
28252;SDS011;15515;45.588;5.276;2022-11-21T14:44:04;3.40;;;1.20;;
28252;SDS011;15515;45.588;5.276;2022-11-21T14:46:39;5.97;;;2.30;;
28252;SDS011;15515;45.588;5.276;2022-11-21T14:51:44;5.88;;;2.00;;
28252;SDS011;15515;45.588;5.276;2022-11-21T14:54:16;5.88;;;1.50;;
28252;SDS011;15515;45.588;5.276;2022-11-21T14:56:46;6.05;;;2.03;;
28252;SDS011;15515;45.588;5.276;2022-11-21T14:59:29;6.43;;;1.55;;
28252;SDS011;15515;45.588;5.276;2022-11-21T15:02:00;5.63;;;1.50;;
28252;SDS011;15515;45.588;5.276;2022-11-21T15:04:33;5.95;;;2.10;;
28252;SDS011;15515;45.588;5.276;2022-11-21T15:07:01;4.63;;;1.33;;
28252;SDS011;15515;45.588;5.276;2022-11-21T15:09:29;7.82;;;1.88;;
28252;SDS011;15515;45.588;5.276;2022-11-21T15:12:32;3.95;;;1.73;;
28252;SDS011;15515;45.588;5.276;2022-11-21T15:15:23;4.72;;;2.03;;
28252;SDS011;15515;45.588;5.276;2022-11-21T15:17:59;7.57;;;2.10;;
28252;SDS011;15515;45.588;5.276;2022-11-21T15:20:50;7.07;;;1.80;;
28252;SDS011;15515;45.588;5.276;2022-11-21T15:23:25;7.65;;;2.70;;
28252;SDS011;15515;45.588;5.276;2022-11-21T15:25:54;3.00;;;1.75;;
28252;SDS011;15515;45.588;5.276;2022-11-21T15:28:24;4.97;;;2.17;;
28252;SDS011;15515;45.588;5.276;2022-11-21T15:33:52;3.50;;;1.40;;
28252;SDS011;15515;45.588;5.276;2022-11-21T15:36:59;3.45;;;2.20;;
28252;SDS011;15515;45.588;5.276;2022-11-21T15:39:29;5.03;;;1.60;;
28252;SDS011;15515;45.588;5.276;2022-11-21T15:42:25;4.80;;;1.80;;
28252;SDS011;15515;45.588;5.276;2022-11-21T15:47:43;6.57;;;2.67;;
28252;SDS011;15515;45.588;5.276;2022-11-21T15:50:11;5.93;;;2.28;;
28252;SDS011;15515;45.588;5.276;2022-11-21T15:52:48;3.95;;;2.40;;
28252;SDS011;15515;45.588;5.276;2022-11-21T15:55:18;5.03;;;2.05;;
28252;SDS011;15515;45.588;5.276;2022-11-21T15:57:46;4.75;;;1.92;;
28252;SDS011;15515;45.588;5.276;2022-11-21T16:00:13;5.28;;;2.30;;
28252;SDS011;15515;45.588;5.276;2022-11-21T16:02:41;6.63;;;2.40;;
28252;SDS011;15515;45.588;5.276;2022-11-21T16:05:12;4.47;;;1.92;;
28252;SDS011;15515;45.588;5.276;2022-11-21T16:07:40;6.65;;;2.15;;
28252;SDS011;15515;45.588;5.276;2022-11-21T16:10:07;8.18;;;3.03;;
28252;SDS011;15515;45.588;5.276;2022-11-21T16:12:40;3.40;;;2.00;;
28252;SDS011;15515;45.588;5.276;2022-11-21T16:15:07;6.53;;;3.13;;
28252;SDS011;15515;45.588;5.276;2022-11-21T16:17:35;7.75;;;3.22;;
28252;SDS011;15515;45.588;5.276;2022-11-21T16:20:04;6.65;;;3.55;;
28252;SDS011;15515;45.588;5.276;2022-11-21T16:22:31;5.35;;;3.10;;
28252;SDS011;15515;45.588;5.276;2022-11-21T16:24:59;10.13;;;4.40;;
28252;SDS011;15515;45.588;5.276;2022-11-21T16:27:27;8.93;;;4.10;;
28252;SDS011;15515;45.588;5.276;2022-11-21T16:29:54;7.80;;;4.40;;
28252;SDS011;15515;45.588;5.276;2022-11-21T16:32:23;7.18;;;4.35;;
28252;SDS011;15515;45.588;5.276;2022-11-21T16:34:51;7.78;;;4.43;;
28252;SDS011;15515;45.588;5.276;2022-11-21T16:37:20;8.98;;;4.68;;
28252;SDS011;15515;45.588;5.276;2022-11-21T16:39:47;8.75;;;4.78;;
28252;SDS011;15515;45.588;5.276;2022-11-21T16:42:17;10.02;;;4.80;;
28252;SDS011;15515;45.588;5.276;2022-11-21T16:44:45;11.25;;;4.80;;
28252;SDS011;15515;45.588;5.276;2022-11-21T16:47:13;8.95;;;4.45;;
28252;SDS011;15515;45.588;5.276;2022-11-21T16:49:40;9.45;;;4.85;;
28252;SDS011;15515;45.588;5.276;2022-11-21T16:52:13;9.73;;;4.50;;
28252;SDS011;15515;45.588;5.276;2022-11-21T16:54:41;4.47;;;2.08;;
28252;SDS011;15515;45.588;5.276;2022-11-21T16:57:08;7.20;;;4.45;;
28252;SDS011;15515;45.588;5.276;2022-11-21T16:59:36;6.22;;;2.65;;
28252;SDS011;15515;45.588;5.276;2022-11-21T17:02:03;5.95;;;2.22;;
28252;SDS011;15515;45.588;5.276;2022-11-21T17:04:31;4.03;;;3.00;;
28252;SDS011;15515;45.588;5.276;2022-11-21T17:06:59;6.40;;;4.25;;
28252;SDS011;15515;45.588;5.276;2022-11-21T17:09:27;6.00;;;3.92;;
28252;SDS011;15515;45.588;5.276;2022-11-21T17:11:55;5.82;;;3.42;;
28252;SDS011;15515;45.588;5.276;2022-11-21T17:14:23;7.75;;;4.30;;
28252;SDS011;15515;45.588;5.276;2022-11-21T17:16:50;9.10;;;4.63;;
28252;SDS011;15515;45.588;5.276;2022-11-21T17:19:18;9.38;;;4.53;;
28252;SDS011;15515;45.588;5.276;2022-11-21T17:25:47;8.70;;;4.18;;
28252;SDS011;15515;45.588;5.276;2022-11-21T17:28:20;7.68;;;3.65;;
28252;SDS011;15515;45.588;5.276;2022-11-21T17:30:48;7.15;;;4.43;;
28252;SDS011;15515;45.588;5.276;2022-11-21T17:33:18;5.85;;;3.53;;
28252;SDS011;15515;45.588;5.276;2022-11-21T17:35:47;7.65;;;3.97;;
28252;SDS011;15515;45.588;5.276;2022-11-21T17:38:14;6.00;;;3.47;;
28252;SDS011;15515;45.588;5.276;2022-11-21T17:40:48;7.25;;;4.10;;
28252;SDS011;15515;45.588;5.276;2022-11-21T17:44:06;5.95;;;4.03;;
28252;SDS011;15515;45.588;5.276;2022-11-21T18:00:06;3.75;;;1.23;;
